sensor_id;sensor_type;location;lat;lon;timestamp;P1;durP1;ratioP1;P2;durP2;ratioP2
24335;SDS011;33098;52.400;16.880;2023-07-24T00:01:09;5.30;;;3.00;;
24335;SDS011;33098;52.400;16.880;2023-07-24T00:03:36;4.20;;;3.10;;
24335;SDS011;33098;52.400;16.880;2023-07-24T00:06:03;4.70;;;2.90;;
24335;SDS011;33098;52.400;16.880;2023-07-24T00:08:29;5.80;;;3.10;;
24335;SDS011;33098;52.400;16.880;2023-07-24T00:10:56;6.00;;;3.10;;
24335;SDS011;33098;52.400;16.880;2023-07-24T00:13:25;7.40;;;3.20;;
24335;SDS011;33098;52.400;16.880;2023-07-24T00:15:54;5.50;;;3.30;;
24335;SDS011;33098;52.400;16.880;2023-07-24T00:18:20;4.60;;;3.30;;
24335;SDS011;33098;52.400;16.880;2023-07-24T00:20:47;7.10;;;3.60;;
24335;SDS011;33098;52.400;16.880;2023-07-24T00:23:13;4.50;;;3.30;;
24335;SDS011;33098;52.400;16.880;2023-07-24T00:25:41;4.80;;;3.10;;
24335;SDS011;33098;52.400;16.880;2023-07-24T00:28:07;4.60;;;3.10;;
24335;SDS011;33098;52.400;16.880;2023-07-24T00:30:34;3.60;;;2.80;;
24335;SDS011;33098;52.400;16.880;2023-07-24T00:33:01;5.20;;;3.00;;
24335;SDS011;33098;52.400;16.880;2023-07-24T00:35:27;6.10;;;3.20;;
24335;SDS011;33098;52.400;16.880;2023-07-24T00:37:54;5.30;;;3.30;;
24335;SDS011;33098;52.400;16.880;2023-07-24T00:40:22;5.00;;;3.30;;
24335;SDS011;33098;52.400;16.880;2023-07-24T00:42:49;4.60;;;3.40;;
24335;SDS011;33098;52.400;16.880;2023-07-24T00:45:16;4.00;;;3.00;;
24335;SDS011;33098;52.400;16.880;2023-07-24T00:47:43;3.70;;;3.00;;
24335;SDS011;33098;52.400;16.880;2023-07-24T00:50:11;7.00;;;3.40;;
24335;SDS011;33098;52.400;16.880;2023-07-24T00:52:42;5.90;;;3.50;;
24335;SDS011;33098;52.400;16.880;2023-07-24T00:55:09;6.40;;;3.60;;
24335;SDS011;33098;52.400;16.880;2023-07-24T00:57:43;5.10;;;3.30;;
24335;SDS011;33098;52.400;16.880;2023-07-24T01:00:11;5.00;;;3.20;;
24335;SDS011;33098;52.400;16.880;2023-07-24T01:02:38;4.10;;;2.90;;
24335;SDS011;33098;52.400;16.880;2023-07-24T01:05:05;4.20;;;3.00;;
24335;SDS011;33098;52.400;16.880;2023-07-24T01:07:32;4.10;;;3.10;;
24335;SDS011;33098;52.400;16.880;2023-07-24T01:10:01;4.70;;;3.20;;
24335;SDS011;33098;52.400;16.880;2023-07-24T01:12:31;5.20;;;3.00;;
24335;SDS011;33098;52.400;16.880;2023-07-24T01:15:28;3.90;;;3.00;;
24335;SDS011;33098;52.400;16.880;2023-07-24T01:18:17;6.90;;;3.50;;
24335;SDS011;33098;52.400;16.880;2023-07-24T01:20:48;3.50;;;2.80;;
24335;SDS011;33098;52.400;16.880;2023-07-24T01:23:29;5.00;;;3.10;;
24335;SDS011;33098;52.400;16.880;2023-07-24T01:26:02;5.00;;;3.30;;
24335;SDS011;33098;52.400;16.880;2023-07-24T01:28:29;3.90;;;2.90;;
24335;SDS011;33098;52.400;16.880;2023-07-24T01:30:56;6.40;;;3.20;;
24335;SDS011;33098;52.400;16.880;2023-07-24T01:33:25;3.30;;;3.00;;
24335;SDS011;33098;52.400;16.880;2023-07-24T01:35:57;3.90;;;3.30;;
24335;SDS011;33098;52.400;16.880;2023-07-24T01:38:25;4.20;;;2.90;;
24335;SDS011;33098;52.400;16.880;2023-07-24T01:40:53;4.60;;;3.00;;
24335;SDS011;33098;52.400;16.880;2023-07-24T01:43:25;3.30;;;2.80;;
24335;SDS011;33098;52.400;16.880;2023-07-24T01:45:58;4.40;;;3.10;;
24335;SDS011;33098;52.400;16.880;2023-07-24T01:48:25;4.10;;;2.90;;
24335;SDS011;33098;52.400;16.880;2023-07-24T01:50:54;5.30;;;3.00;;
24335;SDS011;33098;52.400;16.880;2023-07-24T01:53:21;6.70;;;3.10;;
24335;SDS011;33098;52.400;16.880;2023-07-24T01:55:47;3.40;;;2.80;;
24335;SDS011;33098;52.400;16.880;2023-07-24T01:58:14;5.10;;;2.90;;
24335;SDS011;33098;52.400;16.880;2023-07-24T02:00:41;5.50;;;3.20;;
24335;SDS011;33098;52.400;16.880;2023-07-24T02:03:07;4.50;;;3.30;;
24335;SDS011;33098;52.400;16.880;2023-07-24T02:05:34;4.10;;;3.30;;
24335;SDS011;33098;52.400;16.880;2023-07-24T02:10:31;3.80;;;3.10;;
24335;SDS011;33098;52.400;16.880;2023-07-24T02:12:58;4.30;;;3.10;;
24335;SDS011;33098;52.400;16.880;2023-07-24T02:15:24;5.20;;;3.10;;
24335;SDS011;33098;52.400;16.880;2023-07-24T02:17:53;5.70;;;3.10;;
24335;SDS011;33098;52.400;16.880;2023-07-24T02:20:20;6.10;;;2.80;;
24335;SDS011;33098;52.400;16.880;2023-07-24T02:22:47;5.50;;;3.30;;
24335;SDS011;33098;52.400;16.880;2023-07-24T02:25:14;3.60;;;3.20;;
24335;SDS011;33098;52.400;16.880;2023-07-24T02:27:41;6.80;;;3.10;;
24335;SDS011;33098;52.400;16.880;2023-07-24T02:30:08;4.50;;;3.00;;
24335;SDS011;33098;52.400;16.880;2023-07-24T02:32:36;3.20;;;2.90;;
24335;SDS011;33098;52.400;16.880;2023-07-24T02:35:02;3.80;;;2.90;;
24335;SDS011;33098;52.400;16.880;2023-07-24T02:37:29;4.70;;;3.10;;
24335;SDS011;33098;52.400;16.880;2023-07-24T02:39:56;4.80;;;2.90;;
24335;SDS011;33098;52.400;16.880;2023-07-24T02:42:23;4.40;;;2.90;;
24335;SDS011;33098;52.400;16.880;2023-07-24T02:44:51;4.30;;;3.20;;
24335;SDS011;33098;52.400;16.880;2023-07-24T02:47:20;4.10;;;3.00;;
24335;SDS011;33098;52.400;16.880;2023-07-24T02:49:47;7.10;;;3.60;;
24335;SDS011;33098;52.400;16.880;2023-07-24T02:52:19;4.30;;;3.00;;
24335;SDS011;33098;52.400;16.880;2023-07-24T02:54:46;4.60;;;2.90;;
24335;SDS011;33098;52.400;16.880;2023-07-24T02:57:12;4.10;;;3.20;;
24335;SDS011;33098;52.400;16.880;2023-07-24T02:59:41;3.40;;;3.00;;
24335;SDS011;33098;52.400;16.880;2023-07-24T03:02:11;4.30;;;3.20;;
24335;SDS011;33098;52.400;16.880;2023-07-24T03:04:37;4.90;;;3.10;;
24335;SDS011;33098;52.400;16.880;2023-07-24T03:07:04;5.20;;;3.00;;
24335;SDS011;33098;52.400;16.880;2023-07-24T03:09:31;5.70;;;3.10;;
24335;SDS011;33098;52.400;16.880;2023-07-24T03:11:57;5.00;;;3.30;;
24335;SDS011;33098;52.400;16.880;2023-07-24T03:14:25;4.50;;;3.30;;
24335;SDS011;33098;52.400;16.880;2023-07-24T03:16:54;4.90;;;3.10;;
24335;SDS011;33098;52.400;16.880;2023-07-24T03:19:21;4.50;;;3.10;;
24335;SDS011;33098;52.400;16.880;2023-07-24T03:21:48;6.90;;;3.20;;
24335;SDS011;33098;52.400;16.880;2023-07-24T03:24:15;4.50;;;3.30;;
24335;SDS011;33098;52.400;16.880;2023-07-24T03:26:42;4.50;;;3.30;;
24335;SDS011;33098;52.400;16.880;2023-07-24T03:29:09;4.30;;;3.20;;
24335;SDS011;33098;52.400;16.880;2023-07-24T03:31:42;5.50;;;3.20;;
24335;SDS011;33098;52.400;16.880;2023-07-24T03:34:08;8.80;;;3.40;;
24335;SDS011;33098;52.400;16.880;2023-07-24T03:36:35;4.20;;;3.60;;
24335;SDS011;33098;52.400;16.880;2023-07-24T03:39:07;4.00;;;3.40;;
24335;SDS011;33098;52.400;16.880;2023-07-24T03:41:36;5.00;;;3.40;;
24335;SDS011;33098;52.400;16.880;2023-07-24T03:44:03;5.50;;;3.30;;
24335;SDS011;33098;52.400;16.880;2023-07-24T03:46:34;4.20;;;3.40;;
24335;SDS011;33098;52.400;16.880;2023-07-24T03:49:01;5.80;;;3.30;;
24335;SDS011;33098;52.400;16.880;2023-07-24T03:51:33;7.20;;;3.70;;
24335;SDS011;33098;52.400;16.880;2023-07-24T03:54:00;7.00;;;3.70;;
24335;SDS011;33098;52.400;16.880;2023-07-24T03:56:26;6.90;;;3.60;;
24335;SDS011;33098;52.400;16.880;2023-07-24T03:58:55;4.90;;;3.40;;
24335;SDS011;33098;52.400;16.880;2023-07-24T04:01:22;4.70;;;3.10;;
24335;SDS011;33098;52.400;16.880;2023-07-24T04:03:49;5.30;;;3.50;;
24335;SDS011;33098;52.400;16.880;2023-07-24T04:06:17;6.00;;;3.70;;
24335;SDS011;33098;52.400;16.880;2023-07-24T04:08:44;4.40;;;3.30;;
24335;SDS011;33098;52.400;16.880;2023-07-24T04:11:11;5.30;;;3.30;;
24335;SDS011;33098;52.400;16.880;2023-07-24T04:13:40;5.60;;;4.00;;
24335;SDS011;33098;52.400;16.880;2023-07-24T04:16:12;6.10;;;3.50;;
24335;SDS011;33098;52.400;16.880;2023-07-24T04:18:39;6.60;;;3.90;;
24335;SDS011;33098;52.400;16.880;2023-07-24T04:21:05;6.00;;;3.60;;
24335;SDS011;33098;52.400;16.880;2023-07-24T04:23:33;5.20;;;3.50;;
24335;SDS011;33098;52.400;16.880;2023-07-24T04:26:02;6.60;;;3.40;;
24335;SDS011;33098;52.400;16.880;2023-07-24T04:28:29;5.90;;;3.50;;
24335;SDS011;33098;52.400;16.880;2023-07-24T04:30:59;5.90;;;3.40;;
24335;SDS011;33098;52.400;16.880;2023-07-24T04:33:27;7.30;;;3.50;;
24335;SDS011;33098;52.400;16.880;2023-07-24T04:35:55;5.70;;;3.50;;
24335;SDS011;33098;52.400;16.880;2023-07-24T04:38:26;9.10;;;3.90;;
24335;SDS011;33098;52.400;16.880;2023-07-24T04:40:54;7.70;;;3.90;;
24335;SDS011;33098;52.400;16.880;2023-07-24T04:43:21;5.40;;;3.30;;
24335;SDS011;33098;52.400;16.880;2023-07-24T04:45:48;4.70;;;3.60;;
24335;SDS011;33098;52.400;16.880;2023-07-24T04:48:18;6.00;;;3.40;;
24335;SDS011;33098;52.400;16.880;2023-07-24T04:50:54;10.30;;;4.30;;
24335;SDS011;33098;52.400;16.880;2023-07-24T04:53:22;7.60;;;3.70;;
24335;SDS011;33098;52.400;16.880;2023-07-24T04:55:49;5.00;;;3.90;;
24335;SDS011;33098;52.400;16.880;2023-07-24T04:58:19;9.10;;;4.30;;
24335;SDS011;33098;52.400;16.880;2023-07-24T05:00:50;4.80;;;3.60;;
24335;SDS011;33098;52.400;16.880;2023-07-24T05:03:17;5.70;;;3.70;;
24335;SDS011;33098;52.400;16.880;2023-07-24T05:05:47;5.30;;;3.30;;
24335;SDS011;33098;52.400;16.880;2023-07-24T05:08:17;7.10;;;3.60;;
24335;SDS011;33098;52.400;16.880;2023-07-24T05:10:47;4.70;;;3.60;;
24335;SDS011;33098;52.400;16.880;2023-07-24T05:13:21;6.60;;;3.70;;
24335;SDS011;33098;52.400;16.880;2023-07-24T05:15:51;5.60;;;3.40;;
24335;SDS011;33098;52.400;16.880;2023-07-24T05:18:18;4.90;;;3.50;;
24335;SDS011;33098;52.400;16.880;2023-07-24T05:20:45;5.10;;;3.50;;
24335;SDS011;33098;52.400;16.880;2023-07-24T05:23:19;7.80;;;3.30;;
24335;SDS011;33098;52.400;16.880;2023-07-24T05:25:55;3.80;;;3.00;;
24335;SDS011;33098;52.400;16.880;2023-07-24T05:28:26;5.20;;;3.30;;
24335;SDS011;33098;52.400;16.880;2023-07-24T05:31:03;5.50;;;3.70;;
24335;SDS011;33098;52.400;16.880;2023-07-24T05:33:32;5.40;;;4.00;;
24335;SDS011;33098;52.400;16.880;2023-07-24T05:36:02;6.70;;;3.60;;
24335;SDS011;33098;52.400;16.880;2023-07-24T05:38:33;5.30;;;3.80;;
24335;SDS011;33098;52.400;16.880;2023-07-24T05:41:00;4.80;;;3.70;;
24335;SDS011;33098;52.400;16.880;2023-07-24T05:43:29;6.00;;;3.70;;
24335;SDS011;33098;52.400;16.880;2023-07-24T05:45:59;7.30;;;3.70;;
24335;SDS011;33098;52.400;16.880;2023-07-24T05:48:30;5.30;;;3.70;;
24335;SDS011;33098;52.400;16.880;2023-07-24T05:50:57;5.90;;;3.40;;
24335;SDS011;33098;52.400;16.880;2023-07-24T05:53:23;6.90;;;3.70;;
24335;SDS011;33098;52.400;16.880;2023-07-24T05:55:57;7.00;;;4.00;;
24335;SDS011;33098;52.400;16.880;2023-07-24T05:58:29;5.90;;;4.20;;
24335;SDS011;33098;52.400;16.880;2023-07-24T06:00:56;6.10;;;3.90;;
24335;SDS011;33098;52.400;16.880;2023-07-24T06:03:23;7.00;;;4.00;;
24335;SDS011;33098;52.400;16.880;2023-07-24T06:05:53;4.70;;;3.60;;
24335;SDS011;33098;52.400;16.880;2023-07-24T06:08:25;7.40;;;4.00;;
24335;SDS011;33098;52.400;16.880;2023-07-24T06:10:52;6.70;;;3.90;;
24335;SDS011;33098;52.400;16.880;2023-07-24T06:13:18;6.10;;;4.20;;
24335;SDS011;33098;52.400;16.880;2023-07-24T06:15:48;7.10;;;4.20;;
24335;SDS011;33098;52.400;16.880;2023-07-24T06:18:16;8.80;;;4.00;;
24335;SDS011;33098;52.400;16.880;2023-07-24T06:20:43;7.20;;;4.50;;
24335;SDS011;33098;52.400;16.880;2023-07-24T06:23:10;8.90;;;3.90;;
24335;SDS011;33098;52.400;16.880;2023-07-24T06:25:36;6.40;;;4.10;;
24335;SDS011;33098;52.400;16.880;2023-07-24T06:28:03;5.70;;;4.00;;
24335;SDS011;33098;52.400;16.880;2023-07-24T06:30:30;7.80;;;4.20;;
24335;SDS011;33098;52.400;16.880;2023-07-24T06:32:56;6.50;;;4.00;;
24335;SDS011;33098;52.400;16.880;2023-07-24T06:35:23;6.40;;;4.10;;
24335;SDS011;33098;52.400;16.880;2023-07-24T06:37:53;6.80;;;3.80;;
24335;SDS011;33098;52.400;16.880;2023-07-24T06:40:19;6.30;;;4.20;;
24335;SDS011;33098;52.400;16.880;2023-07-24T06:42:46;6.60;;;4.00;;
24335;SDS011;33098;52.400;16.880;2023-07-24T06:45:13;6.30;;;3.90;;
24335;SDS011;33098;52.400;16.880;2023-07-24T06:47:39;5.90;;;4.40;;
24335;SDS011;33098;52.400;16.880;2023-07-24T06:50:07;5.60;;;3.80;;
24335;SDS011;33098;52.400;16.880;2023-07-24T06:52:36;6.70;;;4.00;;
24335;SDS011;33098;52.400;16.880;2023-07-24T06:55:10;6.40;;;4.20;;
24335;SDS011;33098;52.400;16.880;2023-07-24T06:57:37;5.20;;;3.90;;
24335;SDS011;33098;52.400;16.880;2023-07-24T07:00:08;6.70;;;4.20;;
24335;SDS011;33098;52.400;16.880;2023-07-24T07:02:40;7.40;;;3.90;;
24335;SDS011;33098;52.400;16.880;2023-07-24T07:05:07;5.20;;;3.60;;
24335;SDS011;33098;52.400;16.880;2023-07-24T07:07:39;4.50;;;3.60;;
24335;SDS011;33098;52.400;16.880;2023-07-24T07:10:08;3.80;;;3.10;;
24335;SDS011;33098;52.400;16.880;2023-07-24T07:12:38;4.90;;;3.10;;
24335;SDS011;33098;52.400;16.880;2023-07-24T07:15:05;3.50;;;3.20;;
24335;SDS011;33098;52.400;16.880;2023-07-24T07:17:32;6.00;;;3.50;;
24335;SDS011;33098;52.400;16.880;2023-07-24T07:19:58;6.20;;;3.30;;
24335;SDS011;33098;52.400;16.880;2023-07-24T07:22:25;7.00;;;3.50;;
24335;SDS011;33098;52.400;16.880;2023-07-24T07:24:53;6.00;;;3.50;;
24335;SDS011;33098;52.400;16.880;2023-07-24T07:27:21;4.60;;;3.50;;
24335;SDS011;33098;52.400;16.880;2023-07-24T07:29:48;5.70;;;3.20;;
24335;SDS011;33098;52.400;16.880;2023-07-24T07:32:15;3.30;;;2.80;;
24335;SDS011;33098;52.400;16.880;2023-07-24T07:34:43;3.50;;;2.80;;
24335;SDS011;33098;52.400;16.880;2023-07-24T07:37:12;3.60;;;2.80;;
24335;SDS011;33098;52.400;16.880;2023-07-24T07:39:39;4.10;;;3.30;;
24335;SDS011;33098;52.400;16.880;2023-07-24T07:42:09;4.00;;;3.00;;
24335;SDS011;33098;52.400;16.880;2023-07-24T07:44:35;4.40;;;2.90;;
24335;SDS011;33098;52.400;16.880;2023-07-24T07:47:02;4.00;;;2.90;;
24335;SDS011;33098;52.400;16.880;2023-07-24T07:49:32;4.60;;;2.70;;
24335;SDS011;33098;52.400;16.880;2023-07-24T07:52:01;5.60;;;2.90;;
24335;SDS011;33098;52.400;16.880;2023-07-24T07:54:28;3.60;;;2.80;;
24335;SDS011;33098;52.400;16.880;2023-07-24T07:56:55;3.90;;;3.40;;
24335;SDS011;33098;52.400;16.880;2023-07-24T07:59:22;4.50;;;2.90;;
24335;SDS011;33098;52.400;16.880;2023-07-24T08:01:49;7.00;;;3.00;;
24335;SDS011;33098;52.400;16.880;2023-07-24T08:04:17;5.40;;;2.90;;
24335;SDS011;33098;52.400;16.880;2023-07-24T08:06:45;4.00;;;2.90;;
24335;SDS011;33098;52.400;16.880;2023-07-24T08:09:15;4.50;;;3.00;;
24335;SDS011;33098;52.400;16.880;2023-07-24T08:11:43;3.40;;;2.90;;
24335;SDS011;33098;52.400;16.880;2023-07-24T08:14:10;4.90;;;3.30;;
24335;SDS011;33098;52.400;16.880;2023-07-24T08:16:37;4.70;;;3.20;;
24335;SDS011;33098;52.400;16.880;2023-07-24T08:19:04;3.90;;;3.30;;
24335;SDS011;33098;52.400;16.880;2023-07-24T08:21:30;5.10;;;3.20;;
24335;SDS011;33098;52.400;16.880;2023-07-24T08:24:01;3.80;;;3.30;;
24335;SDS011;33098;52.400;16.880;2023-07-24T08:26:29;4.50;;;3.00;;
24335;SDS011;33098;52.400;16.880;2023-07-24T08:28:58;5.30;;;3.50;;
24335;SDS011;33098;52.400;16.880;2023-07-24T08:31:28;6.60;;;3.20;;
24335;SDS011;33098;52.400;16.880;2023-07-24T08:33:59;3.70;;;3.20;;
24335;SDS011;33098;52.400;16.880;2023-07-24T08:36:28;4.00;;;3.30;;
24335;SDS011;33098;52.400;16.880;2023-07-24T08:38:55;3.70;;;3.30;;
24335;SDS011;33098;52.400;16.880;2023-07-24T08:41:24;5.70;;;3.40;;
24335;SDS011;33098;52.400;16.880;2023-07-24T08:43:56;7.70;;;3.50;;
24335;SDS011;33098;52.400;16.880;2023-07-24T08:46:23;4.40;;;3.30;;
24335;SDS011;33098;52.400;16.880;2023-07-24T08:48:56;4.30;;;3.50;;
24335;SDS011;33098;52.400;16.880;2023-07-24T08:51:23;3.80;;;3.30;;
24335;SDS011;33098;52.400;16.880;2023-07-24T08:53:51;4.70;;;3.40;;
24335;SDS011;33098;52.400;16.880;2023-07-24T08:56:20;5.60;;;3.50;;
24335;SDS011;33098;52.400;16.880;2023-07-24T08:58:49;7.40;;;3.40;;
24335;SDS011;33098;52.400;16.880;2023-07-24T09:01:22;6.70;;;3.70;;
24335;SDS011;33098;52.400;16.880;2023-07-24T09:03:49;4.10;;;3.20;;
24335;SDS011;33098;52.400;16.880;2023-07-24T09:06:16;4.90;;;3.40;;
24335;SDS011;33098;52.400;16.880;2023-07-24T09:08:43;3.90;;;3.30;;
24335;SDS011;33098;52.400;16.880;2023-07-24T09:11:11;4.00;;;3.40;;
24335;SDS011;33098;52.400;16.880;2023-07-24T09:13:44;5.00;;;3.50;;
24335;SDS011;33098;52.400;16.880;2023-07-24T09:16:24;3.50;;;2.90;;
24335;SDS011;33098;52.400;16.880;2023-07-24T09:18:52;3.80;;;3.30;;
24335;SDS011;33098;52.400;16.880;2023-07-24T09:21:29;4.20;;;3.30;;
24335;SDS011;33098;52.400;16.880;2023-07-24T09:23:56;4.00;;;3.30;;
24335;SDS011;33098;52.400;16.880;2023-07-24T09:26:24;4.80;;;3.60;;
24335;SDS011;33098;52.400;16.880;2023-07-24T09:28:53;4.00;;;3.10;;
24335;SDS011;33098;52.400;16.880;2023-07-24T09:31:20;5.20;;;3.70;;
24335;SDS011;33098;52.400;16.880;2023-07-24T09:33:47;5.30;;;3.20;;
24335;SDS011;33098;52.400;16.880;2023-07-24T09:36:14;5.80;;;3.60;;
24335;SDS011;33098;52.400;16.880;2023-07-24T09:38:41;4.20;;;2.90;;
24335;SDS011;33098;52.400;16.880;2023-07-24T09:41:11;4.00;;;3.20;;
24335;SDS011;33098;52.400;16.880;2023-07-24T09:43:41;7.00;;;3.10;;
24335;SDS011;33098;52.400;16.880;2023-07-24T09:46:08;4.30;;;3.20;;
24335;SDS011;33098;52.400;16.880;2023-07-24T09:48:36;5.90;;;3.30;;
24335;SDS011;33098;52.400;16.880;2023-07-24T09:51:08;6.10;;;3.40;;
24335;SDS011;33098;52.400;16.880;2023-07-24T09:53:51;5.70;;;3.40;;
24335;SDS011;33098;52.400;16.880;2023-07-24T09:56:22;4.00;;;3.20;;
24335;SDS011;33098;52.400;16.880;2023-07-24T09:58:58;3.40;;;3.10;;
24335;SDS011;33098;52.400;16.880;2023-07-24T10:01:26;4.80;;;3.70;;
24335;SDS011;33098;52.400;16.880;2023-07-24T10:03:54;5.50;;;3.50;;
24335;SDS011;33098;52.400;16.880;2023-07-24T10:06:21;5.80;;;3.50;;
24335;SDS011;33098;52.400;16.880;2023-07-24T10:08:50;5.20;;;3.30;;
24335;SDS011;33098;52.400;16.880;2023-07-24T10:11:22;4.10;;;3.50;;
24335;SDS011;33098;52.400;16.880;2023-07-24T10:13:51;3.80;;;3.30;;
24335;SDS011;33098;52.400;16.880;2023-07-24T10:16:24;4.50;;;3.20;;
24335;SDS011;33098;52.400;16.880;2023-07-24T10:18:51;4.20;;;3.30;;
24335;SDS011;33098;52.400;16.880;2023-07-24T10:21:28;4.50;;;3.20;;
24335;SDS011;33098;52.400;16.880;2023-07-24T10:23:59;7.00;;;3.50;;
24335;SDS011;33098;52.400;16.880;2023-07-24T10:26:29;4.00;;;3.60;;
24335;SDS011;33098;52.400;16.880;2023-07-24T10:28:57;5.40;;;3.70;;
24335;SDS011;33098;52.400;16.880;2023-07-24T10:31:32;4.60;;;3.70;;
24335;SDS011;33098;52.400;16.880;2023-07-24T10:34:04;5.90;;;3.60;;
24335;SDS011;33098;52.400;16.880;2023-07-24T10:36:36;6.30;;;3.80;;
24335;SDS011;33098;52.400;16.880;2023-07-24T10:39:17;3.80;;;2.90;;
24335;SDS011;33098;52.400;16.880;2023-07-24T10:44:29;4.40;;;3.30;;
24335;SDS011;33098;52.400;16.880;2023-07-24T10:46:57;3.60;;;3.20;;
24335;SDS011;33098;52.400;16.880;2023-07-24T10:49:27;3.70;;;3.40;;
24335;SDS011;33098;52.400;16.880;2023-07-24T10:51:58;4.60;;;3.40;;
24335;SDS011;33098;52.400;16.880;2023-07-24T10:54:26;6.80;;;3.20;;
24335;SDS011;33098;52.400;16.880;2023-07-24T10:56:59;5.60;;;2.60;;
24335;SDS011;33098;52.400;16.880;2023-07-24T10:59:39;4.90;;;3.50;;
24335;SDS011;33098;52.400;16.880;2023-07-24T11:02:10;4.30;;;2.90;;
24335;SDS011;33098;52.400;16.880;2023-07-24T11:04:42;3.10;;;2.80;;
24335;SDS011;33098;52.400;16.880;2023-07-24T11:07:08;5.20;;;3.50;;
24335;SDS011;33098;52.400;16.880;2023-07-24T11:09:36;4.10;;;3.50;;
24335;SDS011;33098;52.400;16.880;2023-07-24T11:17:20;3.80;;;3.00;;
24335;SDS011;33098;52.400;16.880;2023-07-24T11:19:47;4.10;;;3.40;;
24335;SDS011;33098;52.400;16.880;2023-07-24T11:22:14;5.30;;;3.30;;
24335;SDS011;33098;52.400;16.880;2023-07-24T11:24:50;4.20;;;3.50;;
24335;SDS011;33098;52.400;16.880;2023-07-24T11:27:17;3.60;;;3.00;;
24335;SDS011;33098;52.400;16.880;2023-07-24T11:29:48;3.70;;;3.30;;
24335;SDS011;33098;52.400;16.880;2023-07-24T11:32:19;5.50;;;3.60;;
24335;SDS011;33098;52.400;16.880;2023-07-24T11:34:52;5.40;;;3.40;;
24335;SDS011;33098;52.400;16.880;2023-07-24T11:37:19;5.80;;;3.30;;
24335;SDS011;33098;52.400;16.880;2023-07-24T11:39:55;4.30;;;3.60;;
24335;SDS011;33098;52.400;16.880;2023-07-24T11:42:26;3.40;;;3.10;;
24335;SDS011;33098;52.400;16.880;2023-07-24T11:44:54;4.20;;;3.30;;
24335;SDS011;33098;52.400;16.880;2023-07-24T11:47:21;4.40;;;3.40;;
24335;SDS011;33098;52.400;16.880;2023-07-24T11:50:00;5.80;;;3.90;;
24335;SDS011;33098;52.400;16.880;2023-07-24T11:52:43;4.50;;;3.60;;
24335;SDS011;33098;52.400;16.880;2023-07-24T11:55:12;7.70;;;3.40;;
24335;SDS011;33098;52.400;16.880;2023-07-24T11:57:41;5.60;;;3.60;;
24335;SDS011;33098;52.400;16.880;2023-07-24T12:00:21;5.70;;;3.40;;
24335;SDS011;33098;52.400;16.880;2023-07-24T12:02:49;5.50;;;3.70;;
24335;SDS011;33098;52.400;16.880;2023-07-24T12:05:20;4.10;;;3.40;;
24335;SDS011;33098;52.400;16.880;2023-07-24T12:07:48;4.00;;;3.40;;
24335;SDS011;33098;52.400;16.880;2023-07-24T12:10:24;5.70;;;3.40;;
24335;SDS011;33098;52.400;16.880;2023-07-24T12:13:00;4.90;;;3.30;;
24335;SDS011;33098;52.400;16.880;2023-07-24T12:15:26;3.90;;;3.20;;
24335;SDS011;33098;52.400;16.880;2023-07-24T12:17:53;4.80;;;3.30;;
24335;SDS011;33098;52.400;16.880;2023-07-24T12:20:20;3.60;;;3.30;;
24335;SDS011;33098;52.400;16.880;2023-07-24T12:22:47;4.10;;;3.50;;
24335;SDS011;33098;52.400;16.880;2023-07-24T12:25:16;4.90;;;3.00;;
24335;SDS011;33098;52.400;16.880;2023-07-24T12:27:43;4.90;;;3.20;;
24335;SDS011;33098;52.400;16.880;2023-07-24T12:30:09;4.30;;;3.60;;
24335;SDS011;33098;52.400;16.880;2023-07-24T12:32:39;5.40;;;3.40;;
24335;SDS011;33098;52.400;16.880;2023-07-24T12:35:07;6.80;;;3.40;;
24335;SDS011;33098;52.400;16.880;2023-07-24T12:37:36;5.20;;;3.40;;
24335;SDS011;33098;52.400;16.880;2023-07-24T12:40:05;5.20;;;3.50;;
24335;SDS011;33098;52.400;16.880;2023-07-24T12:42:39;3.90;;;3.00;;
24335;SDS011;33098;52.400;16.880;2023-07-24T12:45:06;4.00;;;3.60;;
24335;SDS011;33098;52.400;16.880;2023-07-24T12:47:36;5.50;;;3.30;;
24335;SDS011;33098;52.400;16.880;2023-07-24T12:50:02;6.00;;;4.00;;
24335;SDS011;33098;52.400;16.880;2023-07-24T12:52:34;4.60;;;3.40;;
24335;SDS011;33098;52.400;16.880;2023-07-24T12:55:04;4.70;;;3.50;;
24335;SDS011;33098;52.400;16.880;2023-07-24T12:57:31;4.70;;;3.30;;
24335;SDS011;33098;52.400;16.880;2023-07-24T13:00:05;4.80;;;3.70;;
24335;SDS011;33098;52.400;16.880;2023-07-24T13:02:35;4.00;;;3.40;;
24335;SDS011;33098;52.400;16.880;2023-07-24T13:05:02;3.50;;;3.20;;
24335;SDS011;33098;52.400;16.880;2023-07-24T13:07:28;3.50;;;3.10;;
24335;SDS011;33098;52.400;16.880;2023-07-24T13:09:58;5.10;;;3.50;;
24335;SDS011;33098;52.400;16.880;2023-07-24T13:12:25;5.20;;;3.30;;
24335;SDS011;33098;52.400;16.880;2023-07-24T13:14:51;5.50;;;3.60;;
24335;SDS011;33098;52.400;16.880;2023-07-24T13:17:18;7.50;;;3.30;;
24335;SDS011;33098;52.400;16.880;2023-07-24T13:19:48;4.00;;;3.60;;
24335;SDS011;33098;52.400;16.880;2023-07-24T13:22:15;3.60;;;3.30;;
24335;SDS011;33098;52.400;16.880;2023-07-24T13:24:48;4.60;;;3.30;;
24335;SDS011;33098;52.400;16.880;2023-07-24T13:27:14;4.60;;;3.60;;
24335;SDS011;33098;52.400;16.880;2023-07-24T13:29:43;6.10;;;3.70;;
24335;SDS011;33098;52.400;16.880;2023-07-24T13:32:11;4.00;;;3.50;;
24335;SDS011;33098;52.400;16.880;2023-07-24T13:34:38;3.80;;;3.40;;
24335;SDS011;33098;52.400;16.880;2023-07-24T13:37:07;5.50;;;3.90;;
24335;SDS011;33098;52.400;16.880;2023-07-24T13:39:37;5.70;;;3.60;;
24335;SDS011;33098;52.400;16.880;2023-07-24T13:42:04;5.70;;;3.90;;
24335;SDS011;33098;52.400;16.880;2023-07-24T13:44:33;5.10;;;4.00;;
24335;SDS011;33098;52.400;16.880;2023-07-24T13:47:03;4.60;;;3.60;;
24335;SDS011;33098;52.400;16.880;2023-07-24T13:49:30;5.50;;;4.20;;
24335;SDS011;33098;52.400;16.880;2023-07-24T13:51:57;6.20;;;4.20;;
24335;SDS011;33098;52.400;16.880;2023-07-24T13:54:24;5.90;;;4.50;;
24335;SDS011;33098;52.400;16.880;2023-07-24T13:56:51;5.80;;;4.50;;
24335;SDS011;33098;52.400;16.880;2023-07-24T13:59:20;5.90;;;4.40;;
24335;SDS011;33098;52.400;16.880;2023-07-24T14:01:47;5.20;;;4.30;;
24335;SDS011;33098;52.400;16.880;2023-07-24T14:04:13;6.70;;;5.10;;
24335;SDS011;33098;52.400;16.880;2023-07-24T14:06:42;5.20;;;4.60;;
24335;SDS011;33098;52.400;16.880;2023-07-24T14:09:09;7.30;;;5.10;;
24335;SDS011;33098;52.400;16.880;2023-07-24T14:11:39;5.40;;;4.90;;
24335;SDS011;33098;52.400;16.880;2023-07-24T14:14:05;6.00;;;5.20;;
24335;SDS011;33098;52.400;16.880;2023-07-24T14:16:32;6.60;;;4.90;;
24335;SDS011;33098;52.400;16.880;2023-07-24T14:18:59;9.30;;;5.70;;
24335;SDS011;33098;52.400;16.880;2023-07-24T14:21:26;6.20;;;5.30;;
24335;SDS011;33098;52.400;16.880;2023-07-24T14:26:22;6.90;;;5.40;;
24335;SDS011;33098;52.400;16.880;2023-07-24T14:28:55;5.70;;;4.90;;
24335;SDS011;33098;52.400;16.880;2023-07-24T14:31:24;7.60;;;5.80;;
24335;SDS011;33098;52.400;16.880;2023-07-24T14:33:53;6.70;;;5.80;;
24335;SDS011;33098;52.400;16.880;2023-07-24T14:36:23;7.50;;;5.30;;
24335;SDS011;33098;52.400;16.880;2023-07-24T14:38:50;6.10;;;5.10;;
24335;SDS011;33098;52.400;16.880;2023-07-24T14:41:16;8.50;;;5.80;;
24335;SDS011;33098;52.400;16.880;2023-07-24T14:43:45;6.60;;;5.10;;
24335;SDS011;33098;52.400;16.880;2023-07-24T14:46:19;5.80;;;5.20;;
24335;SDS011;33098;52.400;16.880;2023-07-24T14:48:46;8.50;;;5.00;;
24335;SDS011;33098;52.400;16.880;2023-07-24T14:51:17;6.80;;;5.30;;
24335;SDS011;33098;52.400;16.880;2023-07-24T14:53:45;5.70;;;4.60;;
24335;SDS011;33098;52.400;16.880;2023-07-24T14:56:12;8.40;;;4.90;;